Terminal Aerodrome Forecast
Issued by NWS Mt. Holly, NJ

Home | Current Version | Previous Version | Text Only | Print | Product List | Glossary On
Versions: 1 2 3 4 5 6 7 8 9 10 11 12 13 14 15 16 17
000
FTUS41 KPHI 221733
TAFILG
TAF
KILG 221733Z 2218/2318 32016G32KT P6SM SCT045
     FM230000 33011G22KT P6SM SKC
     FM230300 32009KT P6SM SKC
     FM230900 33005KT P6SM SKC
     FM231700 30007KT P6SM SKC=

USA.gov is the U.S. government's official web portal to all federal, state and local government web resources and services.